Historyczne dane pomiarowe

Dodano dane terminowe – wersja testowa.

Dane z okresu 1951-2019

Wersja bazy: 1.34 [2019-03-16, lista zmian], aktualizacja planowana na 2019-04-15

Dane meteo z obszaru Polski uzyskane na podstawie danych udostępnionych przez Instytut Meteorologii i Gospodarki Wodnej – Państwowy Instytut Badawczy.

 

Wybierz Datę:    

       

TemperaturaWilgotnośćWiatrCiśnienieOpadyŚniegCzas trwania zjawisk
 Stacja t tx tn tng RH VA  wxwx mslp ppp RRR   cm mm wxwxwxwxwxwxwx
1961-02-14 5.1 6.2 1.9- 97.0- 8.0 1.0---- 0.0------------
1961-02-15 7.3 12.1 1.7- 87.3- 5.3 3.0---- 0.1------------
1961-02-16 4.2 8.2 2.1- 96.8- 8.0 2.3---- 0.0------------
1961-02-17 6.5 10.9 4.8- 84.5- 3.7 1.3---- 0.0------------
1961-02-18 4.3 12.6 -1.2- 87.5- 2.7 2.3---- 0.0------------
1961-02-19 5.0 6.4 2.9- 95.8- 8.0 2.3---- 0.0------------
1961-02-20 4.2 5.8 2.3- 97.8- 8.0 2.3---- 0.0------------
1961-02-21 2.9 5.4 2.1- 96.5- 7.7 1.7---- 0.0------------
1961-02-22 1.3 8.2 -1.3- 90.3- 3.0 0.7---- 0.0------------
1961-02-23 0.7 2.1 -1.1- 97.0- 8.0 3.7---- 0.0------------
1961-02-24 3.5 6.8 1.1- 88.8- 5.7 5.7---- 0.0------------
1961-02-25 3.8 9.2 1.8- 86.3- 5.3 7.3---- 0.0------------
1961-02-26 3.7 8.5 0.2- 89.5- 6.3 2.3---- 0.3------------
1961-02-27 7.3 13.0 2.5- 92.8- 8.0 4.7---- 10.3------------
1961-02-28 5.6 12.3 2.9- 95.0- 8.0 5.7---- 6.8------------
1961-03-01 2.9 4.9 1.7- 93.3- 6.7 3.3---- 0.1------------
1961-03-02 4.8 6.7 1.4- 90.0- 8.0 3.3---- 3.0------------
1961-03-03 5.6 7.7 4.7- 93.3- 5.7 3.0---- 0.0------------
1961-03-04 7.1 11.9 1.9- 72.5- 8.0 4.7---- 0.0------------
1961-03-05 5.2 8.8 4.4- 94.0- 6.7 6.0---- 0.0------------
1961-03-06 4.6 8.6 2.7- 93.0- 4.7 3.3---- 0.0------------
1961-03-07 5.6 11.4 2.8- 90.0- 3.7 4.0---- 0.0------------
1961-03-08 6.0 10.3 0.7- 85.5- 0.7 5.3---- 0.0------------
1961-03-09 7.5 14.1 3.5- 78.5- 3.0 3.3---- 0.0------------
1961-03-10 9.5 17.7 0.2- 73.0- 4.0 2.7---- 0.0------------
1961-03-11 8.2 13.8 7.1- 86.0- 8.0 6.0---- 0.3------------
1961-03-12 10.3 15.3 6.6- 81.8- 7.3 10.3---- 1.4------------
1961-03-13 5.1 10.2 3.6- 79.3- 6.7 8.3---- 2.8------------
1961-03-14 9.0 10.3 3.9- 89.5- 5.7 7.3---- 0.4------------
1961-03-15 10.4 12.7 8.7- 77.8- 6.0 7.7---- 0.0------------
149.9 ms

 

Źródłem pochodzenia danych jest Instytut Meteorologii i Gospodarki Wodnej – Państwowy Instytut Badawczy. Dane Instytutu Meteorologii i Gospodarki Wodnej – Państwowego Instytutu Badawczego zostały przetworzone.

Dane źródłowe można odnaleźć na stronie https://dane.imgw.pl